Estación Meteorológica Peña el Pijo (Robertgarden) [ 01/16/21 22:03:50 CET ]

Fecha Hora Presion(HPa) Temp (°C) Humedad % Rocio (°C) Viento ( m/s) Direccion Lluvia 1Hora(mm) Lluvia 24H(mm) LLuvia Total(mm)
2021-Jan-10 01:09:29 993.100 -5.0 94 -5.8 - N     89.61
2021-Jan-10 02:11:47 992.800 -4.6 94 -5.4 - N     89.61
2021-Jan-10 03:09:27 992.900 -4.6 94 -5.4 - N     89.61
2021-Jan-10 04:09:40 993.200 -4.1 94 -4.9 - N     89.61
2021-Jan-10 05:09:24 993.400 -3.7 94 -4.5 - N     89.61
2021-Jan-10 06:09:29 993.700 -3.2 94 -4.0 - N     89.61
2021-Jan-10 07:09:10 993.900 -2.9 94 -3.7 - N     89.61
2021-Jan-10 08:09:38 994.200 -2.7 95 -3.4 - N     89.61
2021-Jan-10 09:09:25 994.900 -2.2 95 -2.9 - N     89.61
2021-Jan-10 10:09:45 995.900 1.9 94 1.0 - N     89.61
2021-Jan-10 11:09:24 996.600 3.4 93 2.3 - N     89.61
2021-Jan-10 12:09:23 996.900 3.4 89 1.7 - N     89.61
2021-Jan-10 13:09:34 996.500 3.9 89 2.2 - N     89.61
2021-Jan-10 14:09:33 996.500 3.9 91 2.5 - N     89.61
2021-Jan-10 15:09:32 996.500 3.2 91 1.9 - N     89.61
2021-Jan-10 16:09:08 997.100 2.1 92 0.9 - N     89.61
2021-Jan-10 17:09:41 997.800 0.9 94 0.0 - N     89.61
2021-Jan-10 18:09:29 998.500 0.1 94 -0.8 - N     89.61
2021-Jan-10 19:09:46 999.300 -0.4 95 -1.1 - N     89.61
2021-Jan-10 20:09:26 1000.000 -0.3 95 -1.0 - N     89.61
2021-Jan-10 21:09:28 1000.600 -0.4 95 -1.1 - N     89.61
2021-Jan-10 22:09:48 1001.100 -0.6 95 -1.3 - N     89.61
2021-Jan-10 23:09:37 1001.300 -0.7 95 -1.4 - N     89.61

Temperatura Máxima:    Temperatura Mínima:-5°
Presión Máxima:1001.300 Hpa    Presión Mínima:992.800 Hpa


Volver